Terminal Aerodrome Forecast
Issued by NWS

Home | Current Version | Previous Version | Text Only | Print | Product List | Glossary On
Versions: 1 2 3 4 5 6 7 8 9 10 11 12 13 14 15 16 17 18 19 20 21 22 23
000
FTUS41 KPBZ 311100
TAFFKL
TAF
KFKL 311138Z 3112/0112 21007KT 3SM BR OVC004
      TEMPO 3112/3113 2SM BR OVC004
     FM311400 21010KT P6SM BKN040
     FM010100 VRB05KT P6SM SKC
     FM010700 VRB03KT 3SM BR SKC
      AMD LTD TO CLD VIS AND WIND=

USA.gov is the U.S. government's official web portal to all federal, state and local government web resources and services.